sensor_id;sensor_type;location;lat;lon;timestamp;pressure;altitude;pressure_sealevel;temperature;humidity
51439;BME280;38816;51.142;-0.974;2022-12-13T00:01:20;99451.81;;;-3.69;100.00
51439;BME280;38816;51.142;-0.974;2022-12-13T00:03:46;99470.03;;;-3.59;100.00
51439;BME280;38816;51.142;-0.974;2022-12-13T00:06:12;99460.66;;;-3.61;100.00
51439;BME280;38816;51.142;-0.974;2022-12-13T00:08:38;99462.03;;;-3.66;100.00
51439;BME280;38816;51.142;-0.974;2022-12-13T00:11:06;99470.03;;;-3.59;100.00
51439;BME280;38816;51.142;-0.974;2022-12-13T00:13:33;99461.72;;;-3.58;100.00
51439;BME280;38816;51.142;-0.974;2022-12-13T00:16:05;99453.72;;;-3.65;100.00
51439;BME280;38816;51.142;-0.974;2022-12-13T00:18:31;99447.69;;;-3.69;100.00
51439;BME280;38816;51.142;-0.974;2022-12-13T00:20:56;99442.88;;;-3.79;100.00
51439;BME280;38816;51.142;-0.974;2022-12-13T00:23:22;99449.72;;;-3.76;100.00
51439;BME280;38816;51.142;-0.974;2022-12-13T00:25:47;99438.44;;;-3.83;100.00
51439;BME280;38816;51.142;-0.974;2022-12-13T00:28:14;99427.03;;;-3.78;100.00
51439;BME280;38816;51.142;-0.974;2022-12-13T00:30:39;99421.25;;;-3.77;100.00
51439;BME280;38816;51.142;-0.974;2022-12-13T00:33:05;99418.03;;;-3.74;100.00
51439;BME280;38816;51.142;-0.974;2022-12-13T00:35:32;99414.75;;;-3.73;100.00
51439;BME280;38816;51.142;-0.974;2022-12-13T00:37:57;99430.66;;;-3.60;100.00
51439;BME280;38816;51.142;-0.974;2022-12-13T00:40:23;99423.00;;;-3.61;100.00
51439;BME280;38816;51.142;-0.974;2022-12-13T00:42:48;99421.53;;;-3.58;100.00
51439;BME280;38816;51.142;-0.974;2022-12-13T00:45:14;99417.50;;;-3.55;100.00
51439;BME280;38816;51.142;-0.974;2022-12-13T00:47:39;99420.28;;;-3.51;100.00
51439;BME280;38816;51.142;-0.974;2022-12-13T00:50:05;99417.84;;;-3.49;100.00
51439;BME280;38816;51.142;-0.974;2022-12-13T00:52:32;99406.66;;;-3.54;100.00
51439;BME280;38816;51.142;-0.974;2022-12-13T00:54:58;99421.13;;;-3.50;100.00
51439;BME280;38816;51.142;-0.974;2022-12-13T00:57:23;99408.91;;;-3.59;100.00
51439;BME280;38816;51.142;-0.974;2022-12-13T00:59:49;99406.28;;;-3.61;100.00
51439;BME280;38816;51.142;-0.974;2022-12-13T01:02:14;99418.09;;;-3.60;100.00
51439;BME280;38816;51.142;-0.974;2022-12-13T01:04:39;99410.09;;;-3.67;100.00
51439;BME280;38816;51.142;-0.974;2022-12-13T01:07:05;99417.03;;;-3.63;100.00
51439;BME280;38816;51.142;-0.974;2022-12-13T01:09:30;99409.91;;;-3.70;100.00
51439;BME280;38816;51.142;-0.974;2022-12-13T01:12:04;99413.66;;;-3.64;100.00
51439;BME280;38816;51.142;-0.974;2022-12-13T01:14:33;99416.16;;;-3.64;100.00
51439;BME280;38816;51.142;-0.974;2022-12-13T01:16:59;99415.97;;;-3.67;100.00
51439;BME280;38816;51.142;-0.974;2022-12-13T01:19:26;99413.19;;;-3.71;100.00
51439;BME280;38816;51.142;-0.974;2022-12-13T01:21:55;99403.75;;;-3.75;100.00
51439;BME280;38816;51.142;-0.974;2022-12-13T01:24:21;99412.25;;;-3.73;100.00
51439;BME280;38816;51.142;-0.974;2022-12-13T01:26:49;99411.97;;;-3.78;100.00
51439;BME280;38816;51.142;-0.974;2022-12-13T01:29:16;99402.25;;;-3.87;100.00
51439;BME280;38816;51.142;-0.974;2022-12-13T01:31:41;99404.56;;;-3.90;100.00
51439;BME280;38816;51.142;-0.974;2022-12-13T01:34:08;99409.59;;;-3.90;100.00
51439;BME280;38816;51.142;-0.974;2022-12-13T01:36:35;99401.59;;;-3.97;100.00
51439;BME280;38816;51.142;-0.974;2022-12-13T01:39:01;99423.88;;;-3.89;100.00
51439;BME280;38816;51.142;-0.974;2022-12-13T01:41:28;99429.41;;;-3.94;100.00
51439;BME280;38816;51.142;-0.974;2022-12-13T01:44:04;99418.72;;;-4.05;100.00
51439;BME280;38816;51.142;-0.974;2022-12-13T01:46:32;99421.41;;;-4.02;100.00
51439;BME280;38816;51.142;-0.974;2022-12-13T01:51:56;99429.50;;;-4.06;100.00
51439;BME280;38816;51.142;-0.974;2022-12-13T01:54:29;99425.69;;;-4.14;100.00
51439;BME280;38816;51.142;-0.974;2022-12-13T01:56:57;99415.25;;;-4.20;100.00
51439;BME280;38816;51.142;-0.974;2022-12-13T01:59:23;99420.47;;;-4.17;100.00
51439;BME280;38816;51.142;-0.974;2022-12-13T02:01:49;99423.28;;;-4.13;100.00
51439;BME280;38816;51.142;-0.974;2022-12-13T02:04:21;99420.69;;;-4.14;100.00
51439;BME280;38816;51.142;-0.974;2022-12-13T02:06:48;99419.19;;;-4.11;100.00
51439;BME280;38816;51.142;-0.974;2022-12-13T02:09:14;99429.78;;;-4.01;100.00
51439;BME280;38816;51.142;-0.974;2022-12-13T02:11:41;99425.34;;;-4.05;100.00
51439;BME280;38816;51.142;-0.974;2022-12-13T02:14:07;99429.63;;;-4.04;100.00
51439;BME280;38816;51.142;-0.974;2022-12-13T02:27:24;99426.94;;;-3.79;100.00
51439;BME280;38816;51.142;-0.974;2022-12-13T02:33:24;99430.31;;;-3.79;100.00
51439;BME280;38816;51.142;-0.974;2022-12-13T02:36:01;99424.41;;;-3.79;100.00
51439;BME280;38816;51.142;-0.974;2022-12-13T02:41:21;99442.78;;;-3.80;100.00
51439;BME280;38816;51.142;-0.974;2022-12-13T02:43:59;99432.53;;;-3.84;100.00
51439;BME280;38816;51.142;-0.974;2022-12-13T02:46:28;99447.81;;;-3.80;100.00
51439;BME280;38816;51.142;-0.974;2022-12-13T02:48:56;99439.81;;;-3.88;100.00
51439;BME280;38816;51.142;-0.974;2022-12-13T02:51:23;99442.03;;;-3.93;100.00
51439;BME280;38816;51.142;-0.974;2022-12-13T02:53:50;99426.25;;;-4.05;100.00
51439;BME280;38816;51.142;-0.974;2022-12-13T02:56:16;99433.38;;;-3.98;100.00
51439;BME280;38816;51.142;-0.974;2022-12-13T02:58:46;99428.16;;;-4.01;100.00
51439;BME280;38816;51.142;-0.974;2022-12-13T03:06:45;99427.41;;;-4.00;100.00
51439;BME280;38816;51.142;-0.974;2022-12-13T03:12:53;99428.94;;;-4.02;100.00
51439;BME280;38816;51.142;-0.974;2022-12-13T03:15:59;99421.91;;;-4.08;100.00
51439;BME280;38816;51.142;-0.974;2022-12-13T03:18:29;99420.06;;;-4.10;100.00
51439;BME280;38816;51.142;-0.974;2022-12-13T03:20:59;99434.94;;;-4.00;100.00
51439;BME280;38816;51.142;-0.974;2022-12-13T03:23:26;99423.75;;;-4.05;100.00
51439;BME280;38816;51.142;-0.974;2022-12-13T03:25:58;99431.44;;;-4.02;100.00
51439;BME280;38816;51.142;-0.974;2022-12-13T03:28:23;99431.63;;;-3.99;100.00
51439;BME280;38816;51.142;-0.974;2022-12-13T03:30:49;99427.69;;;-3.95;100.00
51439;BME280;38816;51.142;-0.974;2022-12-13T03:33:14;99432.00;;;-3.93;100.00
51439;BME280;38816;51.142;-0.974;2022-12-13T03:35:41;99432.78;;;-3.94;100.00
51439;BME280;38816;51.142;-0.974;2022-12-13T03:38:07;99434.34;;;-3.96;100.00
51439;BME280;38816;51.142;-0.974;2022-12-13T03:40:33;99425.47;;;-4.04;100.00
51439;BME280;38816;51.142;-0.974;2022-12-13T03:43:00;99422.97;;;-4.04;100.00
51439;BME280;38816;51.142;-0.974;2022-12-13T03:45:25;99429.03;;;-4.00;100.00
51439;BME280;38816;51.142;-0.974;2022-12-13T03:47:51;99424.88;;;-4.00;100.00
51439;BME280;38816;51.142;-0.974;2022-12-13T03:50:16;99420.34;;;-4.05;100.00
51439;BME280;38816;51.142;-0.974;2022-12-13T03:52:42;99413.22;;;-4.13;100.00
51439;BME280;38816;51.142;-0.974;2022-12-13T03:55:08;99422.97;;;-4.04;100.00
51439;BME280;38816;51.142;-0.974;2022-12-13T03:57:34;99404.41;;;-4.06;100.00
51439;BME280;38816;51.142;-0.974;2022-12-13T03:59:59;99411.75;;;-3.96;100.00
51439;BME280;38816;51.142;-0.974;2022-12-13T04:02:24;99418.69;;;-3.92;100.00
51439;BME280;38816;51.142;-0.974;2022-12-13T04:04:50;99408.66;;;-3.92;100.00
51439;BME280;38816;51.142;-0.974;2022-12-13T04:07:15;99412.88;;;-3.91;100.00
51439;BME280;38816;51.142;-0.974;2022-12-13T04:09:41;99403.78;;;-3.89;100.00
51439;BME280;38816;51.142;-0.974;2022-12-13T04:12:06;99387.78;;;-3.91;100.00
51439;BME280;38816;51.142;-0.974;2022-12-13T04:14:50;99384.41;;;-3.91;100.00
51439;BME280;38816;51.142;-0.974;2022-12-13T04:17:15;99389.59;;;-3.88;100.00
51439;BME280;38816;51.142;-0.974;2022-12-13T04:19:41;99391.81;;;-3.93;100.00
51439;BME280;38816;51.142;-0.974;2022-12-13T04:22:06;99381.16;;;-4.03;100.00
51439;BME280;38816;51.142;-0.974;2022-12-13T04:24:32;99377.78;;;-4.04;100.00
51439;BME280;38816;51.142;-0.974;2022-12-13T04:26:57;99382.97;;;-4.01;100.00
51439;BME280;38816;51.142;-0.974;2022-12-13T04:29:23;99375.66;;;-4.11;100.00
51439;BME280;38816;51.142;-0.974;2022-12-13T04:31:48;99379.63;;;-4.15;100.00
51439;BME280;38816;51.142;-0.974;2022-12-13T04:34:13;99391.59;;;-4.11;100.00
51439;BME280;38816;51.142;-0.974;2022-12-13T04:36:39;99389.88;;;-4.12;100.00
51439;BME280;38816;51.142;-0.974;2022-12-13T04:39:05;99362.28;;;-4.25;100.00
51439;BME280;38816;51.142;-0.974;2022-12-13T04:41:35;99379.63;;;-4.15;100.00
51439;BME280;38816;51.142;-0.974;2022-12-13T04:44:01;99383.97;;;-4.12;100.00
51439;BME280;38816;51.142;-0.974;2022-12-13T04:46:27;99365.09;;;-4.20;100.00
51439;BME280;38816;51.142;-0.974;2022-12-13T04:48:52;99374.25;;;-4.21;100.00
51439;BME280;38816;51.142;-0.974;2022-12-13T04:51:18;99380.34;;;-4.17;100.00
51439;BME280;38816;51.142;-0.974;2022-12-13T04:53:43;99368.19;;;-4.24;100.00
51439;BME280;38816;51.142;-0.974;2022-12-13T04:56:09;99384.97;;;-4.23;100.00
51439;BME280;38816;51.142;-0.974;2022-12-13T04:58:35;99362.81;;;-4.44;100.00
51439;BME280;38816;51.142;-0.974;2022-12-13T05:01:34;99388.75;;;-4.30;100.00
51439;BME280;38816;51.142;-0.974;2022-12-13T05:04:01;99402.56;;;-4.37;100.00
51439;BME280;38816;51.142;-0.974;2022-12-13T05:06:27;99391.94;;;-4.46;100.00
51439;BME280;38816;51.142;-0.974;2022-12-13T05:08:52;99377.22;;;-4.54;100.00
51439;BME280;38816;51.142;-0.974;2022-12-13T05:11:18;99391.78;;;-4.49;100.00
51439;BME280;38816;51.142;-0.974;2022-12-13T05:13:43;99380.19;;;-4.60;100.00
51439;BME280;38816;51.142;-0.974;2022-12-13T05:16:08;99369.13;;;-4.64;100.00
51439;BME280;38816;51.142;-0.974;2022-12-13T05:18:35;99366.72;;;-4.62;100.00
51439;BME280;38816;51.142;-0.974;2022-12-13T05:21:07;99367.38;;;-4.65;100.00
51439;BME280;38816;51.142;-0.974;2022-12-13T05:23:32;99390.22;;;-4.60;100.00
51439;BME280;38816;51.142;-0.974;2022-12-13T05:25:58;99400.09;;;-4.63;100.00
51439;BME280;38816;51.142;-0.974;2022-12-13T05:28:24;99399.97;;;-4.65;100.00
51439;BME280;38816;51.142;-0.974;2022-12-13T05:30:53;99389.09;;;-4.65;100.00
51439;BME280;38816;51.142;-0.974;2022-12-13T05:33:19;99381.28;;;-4.70;100.00
51439;BME280;38816;51.142;-0.974;2022-12-13T05:35:45;99375.75;;;-4.64;100.00
51439;BME280;38816;51.142;-0.974;2022-12-13T05:38:10;99388.78;;;-4.56;100.00
51439;BME280;38816;51.142;-0.974;2022-12-13T05:40:36;99392.16;;;-4.56;100.00
51439;BME280;38816;51.142;-0.974;2022-12-13T05:43:01;99393.72;;;-4.58;100.00
51439;BME280;38816;51.142;-0.974;2022-12-13T05:45:27;99385.91;;;-4.63;100.00
51439;BME280;38816;51.142;-0.974;2022-12-13T05:47:52;99388.13;;;-4.67;100.00
51439;BME280;38816;51.142;-0.974;2022-12-13T05:50:18;99390.72;;;-4.66;100.00
51439;BME280;38816;51.142;-0.974;2022-12-13T05:52:44;99392.38;;;-4.66;100.00
51439;BME280;38816;51.142;-0.974;2022-12-13T05:55:10;99401.34;;;-4.70;100.00
51439;BME280;38816;51.142;-0.974;2022-12-13T05:57:36;99389.00;;;-4.80;100.00
51439;BME280;38816;51.142;-0.974;2022-12-13T06:00:03;99393.31;;;-4.77;100.00
51439;BME280;38816;51.142;-0.974;2022-12-13T06:02:29;99395.81;;;-4.77;100.00
51439;BME280;38816;51.142;-0.974;2022-12-13T06:04:54;99379.75;;;-4.81;100.00
51439;BME280;38816;51.142;-0.974;2022-12-13T06:07:19;99388.13;;;-4.80;100.00
51439;BME280;38816;51.142;-0.974;2022-12-13T06:09:45;99388.00;;;-4.82;100.00
51439;BME280;38816;51.142;-0.974;2022-12-13T06:12:10;99371.53;;;-4.92;100.00
51439;BME280;38816;51.142;-0.974;2022-12-13T06:14:36;99380.31;;;-4.85;100.00
51439;BME280;38816;51.142;-0.974;2022-12-13T06:17:01;99369.91;;;-4.91;100.00
51439;BME280;38816;51.142;-0.974;2022-12-13T06:19:27;99382.25;;;-4.81;100.00
51439;BME280;38816;51.142;-0.974;2022-12-13T06:21:53;99378.88;;;-4.81;100.00
51439;BME280;38816;51.142;-0.974;2022-12-13T06:24:20;99384.84;;;-4.79;100.00
51439;BME280;38816;51.142;-0.974;2022-12-13T06:26:47;99372.97;;;-4.82;100.00
51439;BME280;38816;51.142;-0.974;2022-12-13T06:29:14;99384.47;;;-4.72;100.00
51439;BME280;38816;51.142;-0.974;2022-12-13T06:31:40;99378.56;;;-4.73;100.00
51439;BME280;38816;51.142;-0.974;2022-12-13T06:34:05;99375.03;;;-4.76;100.00
51439;BME280;38816;51.142;-0.974;2022-12-13T06:36:30;99373.47;;;-4.74;100.00
51439;BME280;38816;51.142;-0.974;2022-12-13T06:38:56;99386.50;;;-4.67;100.00
51439;BME280;38816;51.142;-0.974;2022-12-13T06:41:25;99382.25;;;-4.68;100.00
51439;BME280;38816;51.142;-0.974;2022-12-13T06:43:51;99366.72;;;-4.75;100.00
51439;BME280;38816;51.142;-0.974;2022-12-13T06:46:16;99376.06;;;-4.73;100.00
51439;BME280;38816;51.142;-0.974;2022-12-13T06:48:42;99375.09;;;-4.75;100.00
51439;BME280;38816;51.142;-0.974;2022-12-13T06:51:08;99381.19;;;-4.71;100.00
51439;BME280;38816;51.142;-0.974;2022-12-13T06:53:35;99390.22;;;-4.60;100.00
51439;BME280;38816;51.142;-0.974;2022-12-13T06:56:06;99375.75;;;-4.64;100.00
51439;BME280;38816;51.142;-0.974;2022-12-13T06:58:32;99372.50;;;-4.63;100.00
51439;BME280;38816;51.142;-0.974;2022-12-13T07:03:27;99375.97;;;-4.61;100.00
51439;BME280;38816;51.142;-0.974;2022-12-13T07:05:53;99387.91;;;-4.57;100.00
51439;BME280;38816;51.142;-0.974;2022-12-13T07:08:19;99401.59;;;-4.52;100.00
51439;BME280;38816;51.142;-0.974;2022-12-13T07:10:44;99385.22;;;-4.60;100.00
51439;BME280;38816;51.142;-0.974;2022-12-13T07:13:10;99395.38;;;-4.59;100.00
51439;BME280;38816;51.142;-0.974;2022-12-13T07:15:35;99409.22;;;-4.50;100.00
51439;BME280;38816;51.142;-0.974;2022-12-13T07:18:00;99402.97;;;-4.57;100.00
51439;BME280;38816;51.142;-0.974;2022-12-13T07:20:26;99413.28;;;-4.52;100.00
51439;BME280;38816;51.142;-0.974;2022-12-13T07:22:51;99397.00;;;-4.59;100.00
51439;BME280;38816;51.142;-0.974;2022-12-13T07:25:21;99402.97;;;-4.57;100.00
51439;BME280;38816;51.142;-0.974;2022-12-13T07:27:46;99407.50;;;-4.51;100.00
51439;BME280;38816;51.142;-0.974;2022-12-13T07:30:12;99403.34;;;-4.51;100.00
51439;BME280;38816;51.142;-0.974;2022-12-13T07:32:37;99402.59;;;-4.50;100.00
51439;BME280;38816;51.142;-0.974;2022-12-13T07:35:03;99386.56;;;-4.52;100.00
51439;BME280;38816;51.142;-0.974;2022-12-13T07:37:28;99385.50;;;-4.55;100.00
51439;BME280;38816;51.142;-0.974;2022-12-13T07:39:53;99391.59;;;-4.52;100.00
51439;BME280;38816;51.142;-0.974;2022-12-13T07:42:19;99395.66;;;-4.54;100.00
51439;BME280;38816;51.142;-0.974;2022-12-13T07:44:44;99392.56;;;-4.50;100.00
51439;BME280;38816;51.142;-0.974;2022-12-13T07:47:10;99402.69;;;-4.48;100.00
51439;BME280;38816;51.142;-0.974;2022-12-13T07:49:35;99394.00;;;-4.53;100.00
51439;BME280;38816;51.142;-0.974;2022-12-13T07:52:01;99398.31;;;-4.51;100.00
51439;BME280;38816;51.142;-0.974;2022-12-13T07:54:26;99404.69;;;-4.43;100.00
51439;BME280;38816;51.142;-0.974;2022-12-13T07:56:52;99404.69;;;-4.43;100.00
51439;BME280;38816;51.142;-0.974;2022-12-13T07:59:17;99396.97;;;-4.46;100.00
51439;BME280;38816;51.142;-0.974;2022-12-13T08:01:42;99403.91;;;-4.42;100.00
51439;BME280;38816;51.142;-0.974;2022-12-13T08:04:08;99396.22;;;-4.45;100.00
51439;BME280;38816;51.142;-0.974;2022-12-13T08:06:35;99396.28;;;-4.43;100.00
51439;BME280;38816;51.142;-0.974;2022-12-13T08:09:01;99397.06;;;-4.44;100.00
51439;BME280;38816;51.142;-0.974;2022-12-13T08:11:27;99413.34;;;-4.38;100.00
51439;BME280;38816;51.142;-0.974;2022-12-13T08:13:52;99403.75;;;-4.45;100.00
51439;BME280;38816;51.142;-0.974;2022-12-13T08:16:19;99415.59;;;-4.42;100.00
51439;BME280;38816;51.142;-0.974;2022-12-13T08:18:44;99425.91;;;-4.38;100.00
51439;BME280;38816;51.142;-0.974;2022-12-13T08:21:12;99415.88;;;-4.38;100.00
51439;BME280;38816;51.142;-0.974;2022-12-13T08:23:38;99428.41;;;-4.24;100.00
51439;BME280;38816;51.142;-0.974;2022-12-13T08:26:04;99416.44;;;-4.28;100.00
51439;BME280;38816;51.142;-0.974;2022-12-13T08:28:32;99407.38;;;-4.26;100.00
51439;BME280;38816;51.142;-0.974;2022-12-13T08:31:06;99411.81;;;-4.22;100.00
51439;BME280;38816;51.142;-0.974;2022-12-13T08:33:32;99415.34;;;-4.19;100.00
51439;BME280;38816;51.142;-0.974;2022-12-13T08:36:06;99413.16;;;-4.14;100.00
51439;BME280;38816;51.142;-0.974;2022-12-13T08:38:32;99416.88;;;-4.08;100.00
51439;BME280;38816;51.142;-0.974;2022-12-13T08:40:57;99405.97;;;-4.08;100.00
51439;BME280;38816;51.142;-0.974;2022-12-13T08:43:23;99409.63;;;-4.03;100.00
51439;BME280;38816;51.142;-0.974;2022-12-13T08:45:49;99398.91;;;-4.00;100.00
51439;BME280;38816;51.142;-0.974;2022-12-13T08:48:14;99399.09;;;-3.97;100.00
51439;BME280;38816;51.142;-0.974;2022-12-13T08:50:39;99409.78;;;-3.87;100.00
51439;BME280;38816;51.142;-0.974;2022-12-13T08:53:05;99401.28;;;-3.89;100.00
51439;BME280;38816;51.142;-0.974;2022-12-13T08:55:30;99401.94;;;-3.78;100.00
51439;BME280;38816;51.142;-0.974;2022-12-13T08:57:55;99404.72;;;-3.73;100.00
51439;BME280;38816;51.142;-0.974;2022-12-13T09:00:21;99403.16;;;-3.71;100.00
51439;BME280;38816;51.142;-0.974;2022-12-13T09:02:46;99411.03;;;-3.65;100.00
51439;BME280;38816;51.142;-0.974;2022-12-13T09:05:12;99409.56;;;-3.62;100.00
51439;BME280;38816;51.142;-0.974;2022-12-13T09:07:38;99402.16;;;-3.60;100.00
51439;BME280;38816;51.142;-0.974;2022-12-13T09:10:06;99391.06;;;-3.64;100.00
51439;BME280;38816;51.142;-0.974;2022-12-13T09:12:31;99384.38;;;-3.63;100.00
51439;BME280;38816;51.142;-0.974;2022-12-13T09:14:58;99388.09;;;-3.57;100.00
51439;BME280;38816;51.142;-0.974;2022-12-13T09:17:23;99384.66;;;-3.59;100.00
51439;BME280;38816;51.142;-0.974;2022-12-13T09:19:49;99396.94;;;-3.48;100.00
51439;BME280;38816;51.142;-0.974;2022-12-13T09:22:14;99398.00;;;-3.45;100.00
51439;BME280;38816;51.142;-0.974;2022-12-13T09:24:41;99397.22;;;-3.44;100.00
51439;BME280;38816;51.142;-0.974;2022-12-13T09:27:06;99393.44;;;-3.37;100.00
51439;BME280;38816;51.142;-0.974;2022-12-13T09:29:33;99383.19;;;-3.40;100.00
51439;BME280;38816;51.142;-0.974;2022-12-13T09:31:59;99382.78;;;-3.33;100.00
51439;BME280;38816;51.142;-0.974;2022-12-13T09:34:25;99391.53;;;-3.26;100.00
51439;BME280;38816;51.142;-0.974;2022-12-13T09:36:50;99378.88;;;-3.28;100.00
51439;BME280;38816;51.142;-0.974;2022-12-13T09:39:15;99381.81;;;-3.20;100.00
51439;BME280;38816;51.142;-0.974;2022-12-13T09:41:49;99382.94;;;-3.15;100.00
51439;BME280;38816;51.142;-0.974;2022-12-13T09:44:27;99386.06;;;-3.04;100.00
51439;BME280;38816;51.142;-0.974;2022-12-13T09:46:55;99377.66;;;-3.05;100.00
51439;BME280;38816;51.142;-0.974;2022-12-13T09:49:29;99384.94;;;-2.95;100.00
51439;BME280;38816;51.142;-0.974;2022-12-13T09:51:58;99368.00;;;-2.97;100.00
51439;BME280;38816;51.142;-0.974;2022-12-13T09:54:24;99374.25;;;-2.91;100.00
51439;BME280;38816;51.142;-0.974;2022-12-13T09:56:53;99376.34;;;-2.84;100.00
51439;BME280;38816;51.142;-0.974;2022-12-13T09:59:32;99376.84;;;-2.74;100.00
51439;BME280;38816;51.142;-0.974;2022-12-13T10:02:14;99367.19;;;-2.67;100.00
51439;BME280;38816;51.142;-0.974;2022-12-13T10:04:40;99365.72;;;-2.63;100.00
51439;BME280;38816;51.142;-0.974;2022-12-13T10:07:16;99372.09;;;-2.53;100.00
51439;BME280;38816;51.142;-0.974;2022-12-13T10:09:43;99366.38;;;-2.51;100.00
51439;BME280;38816;51.142;-0.974;2022-12-13T10:12:12;99364.19;;;-2.45;100.00
51439;BME280;38816;51.142;-0.974;2022-12-13T10:14:43;99353.25;;;-2.45;100.00
51439;BME280;38816;51.142;-0.974;2022-12-13T10:17:14;99351.28;;;-2.35;100.00
51439;BME280;38816;51.142;-0.974;2022-12-13T10:19:44;99356.06;;;-2.24;100.00
51439;BME280;38816;51.142;-0.974;2022-12-13T10:22:13;99342.66;;;-2.23;100.00
51439;BME280;38816;51.142;-0.974;2022-12-13T10:24:50;99355.28;;;-2.07;100.00
51439;BME280;38816;51.142;-0.974;2022-12-13T10:27:24;99344.66;;;-2.01;100.00
51439;BME280;38816;51.142;-0.974;2022-12-13T10:30:12;99330.88;;;-1.92;100.00
51439;BME280;38816;51.142;-0.974;2022-12-13T10:32:48;99320.97;;;-1.89;100.00
51439;BME280;38816;51.142;-0.974;2022-12-13T10:35:33;99333.28;;;-1.77;100.00
51439;BME280;38816;51.142;-0.974;2022-12-13T10:40:43;99302.66;;;-1.85;100.00
51439;BME280;38816;51.142;-0.974;2022-12-13T10:43:18;99305.53;;;-1.79;100.00
51439;BME280;38816;51.142;-0.974;2022-12-13T10:48:33;99308.97;;;-1.76;100.00
51439;BME280;38816;51.142;-0.974;2022-12-13T10:51:02;99314.97;;;-1.74;100.00
51439;BME280;38816;51.142;-0.974;2022-12-13T10:53:32;99323.63;;;-1.69;100.00
51439;BME280;38816;51.142;-0.974;2022-12-13T10:55:58;99305.81;;;-1.72;100.00
51439;BME280;38816;51.142;-0.974;2022-12-13T10:58:34;99306.19;;;-1.65;100.00
51439;BME280;38816;51.142;-0.974;2022-12-13T11:01:28;99309.09;;;-1.57;100.00
51439;BME280;38816;51.142;-0.974;2022-12-13T11:04:04;99311.97;;;-1.49;100.00
51439;BME280;38816;51.142;-0.974;2022-12-13T11:06:48;99307.16;;;-1.45;100.00
51439;BME280;38816;51.142;-0.974;2022-12-13T11:09:25;99294.34;;;-1.49;100.00
51439;BME280;38816;51.142;-0.974;2022-12-13T11:11:52;99301.34;;;-1.44;100.00
51439;BME280;38816;51.142;-0.974;2022-12-13T11:14:20;99289.53;;;-1.45;100.00
51439;BME280;38816;51.142;-0.974;2022-12-13T11:16:53;99298.31;;;-1.37;100.00
51439;BME280;38816;51.142;-0.974;2022-12-13T11:21:50;99296.03;;;-1.32;100.00
51439;BME280;38816;51.142;-0.974;2022-12-13T11:24:25;99289.31;;;-1.32;100.00
51439;BME280;38816;51.142;-0.974;2022-12-13T11:26:56;99280.91;;;-1.32;100.00
51439;BME280;38816;51.142;-0.974;2022-12-13T11:37:51;99273.44;;;-1.31;100.00
51439;BME280;38816;51.142;-0.974;2022-12-13T11:40:26;99265.19;;;-1.27;100.00
51439;BME280;38816;51.142;-0.974;2022-12-13T11:43:21;99260.47;;;-1.20;100.00
51439;BME280;38816;51.142;-0.974;2022-12-13T11:45:54;99253.81;;;-1.18;100.00
51439;BME280;38816;51.142;-0.974;2022-12-13T11:48:40;99245.75;;;-1.11;100.00
51439;BME280;38816;51.142;-0.974;2022-12-13T11:51:08;99238.31;;;-1.08;100.00
51439;BME280;38816;51.142;-0.974;2022-12-13T11:53:55;99234.50;;;-1.00;100.00
51439;BME280;38816;51.142;-0.974;2022-12-13T11:56:29;99237.72;;;-0.85;100.00
51439;BME280;38816;51.142;-0.974;2022-12-13T12:01:43;99227.81;;;-0.62;100.00
51439;BME280;38816;51.142;-0.974;2022-12-13T12:07:15;99225.72;;;-0.52;100.00
51439;BME280;38816;51.142;-0.974;2022-12-13T12:09:48;99221.50;;;-0.53;100.00
51439;BME280;38816;51.142;-0.974;2022-12-13T12:12:20;99221.69;;;-0.48;100.00
51439;BME280;38816;51.142;-0.974;2022-12-13T12:15:11;99224.47;;;-0.42;100.00
51439;BME280;38816;51.142;-0.974;2022-12-13T12:17:39;99223.66;;;-0.41;100.00
51439;BME280;38816;51.142;-0.974;2022-12-13T12:20:05;99205.22;;;-0.40;100.00
51439;BME280;38816;51.142;-0.974;2022-12-13T12:22:41;99209.66;;;-0.34;100.00
51439;BME280;38816;51.142;-0.974;2022-12-13T12:46:55;99177.69;;;-0.34;100.00
51439;BME280;38816;51.142;-0.974;2022-12-13T12:55:08;99151.16;;;-0.24;100.00
51439;BME280;38816;51.142;-0.974;2022-12-13T13:00:42;99152.47;;;0.08;100.00
51439;BME280;38816;51.142;-0.974;2022-12-13T13:03:27;99135.47;;;0.04;100.00
51439;BME280;38816;51.142;-0.974;2022-12-13T13:05:57;99135.59;;;0.07;100.00
51439;BME280;38816;51.142;-0.974;2022-12-13T13:08:48;99142.38;;;0.08;100.00
51439;BME280;38816;51.142;-0.974;2022-12-13T13:11:16;99130.72;;;-0.09;100.00
51439;BME280;38816;51.142;-0.974;2022-12-13T13:16:28;99144.06;;;-0.13;100.00
51439;BME280;38816;51.142;-0.974;2022-12-13T13:18:55;99129.38;;;-0.22;100.00
51439;BME280;38816;51.142;-0.974;2022-12-13T13:21:29;99125.19;;;-0.21;100.00
51439;BME280;38816;51.142;-0.974;2022-12-13T13:26:45;99122.66;;;-0.21;100.00
51439;BME280;38816;51.142;-0.974;2022-12-13T13:32:19;99125.41;;;-0.36;100.00
51439;BME280;38816;51.142;-0.974;2022-12-13T13:34:49;99124.28;;;-0.43;100.00
51439;BME280;38816;51.142;-0.974;2022-12-13T13:40:26;99125.50;;;-0.54;100.00
51439;BME280;38816;51.142;-0.974;2022-12-13T14:02:20;99119.25;;;-0.43;100.00
51439;BME280;38816;51.142;-0.974;2022-12-13T14:08:16;99109.38;;;-0.37;100.00
51439;BME280;38816;51.142;-0.974;2022-12-13T14:11:09;99108.47;;;-0.39;100.00
51439;BME280;38816;51.142;-0.974;2022-12-13T14:16:42;99116.28;;;-0.33;100.00
51439;BME280;38816;51.142;-0.974;2022-12-13T14:22:08;99123.69;;;-0.37;100.00
51439;BME280;38816;51.142;-0.974;2022-12-13T14:24:48;99115.66;;;-0.48;100.00
51439;BME280;38816;51.142;-0.974;2022-12-13T14:28:01;99122.19;;;-0.53;100.00
51439;BME280;38816;51.142;-0.974;2022-12-13T14:30:12;99125.63;;;-0.51;100.00
51439;BME280;38816;51.142;-0.974;2022-12-13T14:32:38;99126.19;;;-0.58;100.00
51439;BME280;38816;51.142;-0.974;2022-12-13T14:35:04;99135.34;;;-0.60;100.00
51439;BME280;38816;51.142;-0.974;2022-12-13T14:37:32;99139.47;;;-0.62;100.00
51439;BME280;38816;51.142;-0.974;2022-12-13T14:39:59;99134.94;;;-0.69;100.00
51439;BME280;38816;51.142;-0.974;2022-12-13T14:42:30;99130.50;;;-0.75;100.00
51439;BME280;38816;51.142;-0.974;2022-12-13T14:45:27;99143.19;;;-0.73;100.00
51439;BME280;38816;51.142;-0.974;2022-12-13T14:47:58;99136.25;;;-0.78;100.00
51439;BME280;38816;51.142;-0.974;2022-12-13T14:50:26;99138.69;;;-0.81;100.00
51439;BME280;38816;51.142;-0.974;2022-12-13T14:52:52;99129.16;;;-0.86;100.00